createdAt,value
2019-01-27T00:00:48.143Z,0.00
2019-01-27T00:01:48.124Z,0.00
2019-01-27T00:02:48.129Z,0.00
2019-01-27T00:03:48.108Z,0.00
2019-01-27T00:04:48.091Z,0.00
2019-01-27T00:05:48.089Z,0.00
2019-01-27T00:06:48.072Z,0.00
2019-01-27T00:07:48.106Z,0.00
2019-01-27T00:08:48.061Z,0.00
2019-01-27T00:09:48.038Z,0.00
2019-01-27T00:10:48.033Z,0.00
2019-01-27T00:11:48.022Z,0.00
2019-01-27T00:12:48.015Z,0.00
2019-01-27T00:13:48.010Z,0.00
2019-01-27T00:14:47.989Z,0.00
2019-01-27T00:15:47.976Z,0.00
2019-01-27T00:16:47.984Z,0.00
2019-01-27T00:17:47.960Z,0.00
2019-01-27T00:18:47.954Z,0.00
2019-01-27T00:19:47.940Z,0.00
2019-01-27T00:20:47.922Z,0.00
2019-01-27T00:21:47.921Z,0.00
2019-01-27T00:22:47.958Z,0.00
2019-01-27T00:23:47.896Z,0.00
2019-01-27T00:24:47.901Z,0.00
2019-01-27T00:25:47.869Z,0.00
2019-01-27T00:26:47.865Z,0.00
2019-01-27T00:27:47.854Z,0.00
2019-01-27T00:28:47.843Z,0.00
2019-01-27T00:29:47.836Z,0.00
2019-01-27T00:30:47.818Z,0.00
2019-01-27T00:31:47.826Z,0.00
2019-01-27T00:32:47.813Z,0.00
2019-01-27T00:33:47.786Z,0.00
2019-01-27T00:34:47.811Z,0.00
2019-01-27T00:35:47.772Z,0.00
2019-01-27T00:36:47.753Z,0.00
2019-01-27T00:37:47.753Z,0.00
2019-01-27T00:38:47.741Z,0.00
2019-01-27T00:39:47.722Z,0.00
2019-01-27T00:40:47.723Z,0.00
2019-01-27T00:41:47.710Z,0.00
2019-01-27T00:42:47.690Z,0.00
2019-01-27T00:43:47.680Z,0.00
2019-01-27T00:44:47.669Z,0.00
2019-01-27T00:45:47.676Z,0.00
2019-01-27T00:46:47.650Z,0.00
2019-01-27T00:47:47.655Z,0.00
2019-01-27T00:48:47.631Z,0.00
2019-01-27T00:49:47.622Z,0.00
2019-01-27T00:50:47.609Z,0.00
2019-01-27T00:51:47.598Z,0.00
2019-01-27T00:52:47.601Z,0.00
2019-01-27T00:53:47.575Z,0.00
2019-01-27T00:54:47.567Z,0.00
2019-01-27T00:55:47.558Z,0.00
2019-01-27T00:56:47.556Z,0.00
2019-01-27T00:57:47.532Z,0.00
2019-01-27T00:58:47.522Z,0.00
2019-01-27T00:59:47.514Z,0.00
2019-01-27T01:00:47.511Z,0.00
2019-01-27T01:01:47.493Z,0.00
2019-01-27T01:02:47.489Z,0.00
2019-01-27T01:03:47.470Z,0.00
2019-01-27T01:04:47.463Z,0.00
2019-01-27T01:05:47.468Z,0.00
2019-01-27T01:06:47.443Z,0.00
2019-01-27T01:07:47.455Z,0.00
2019-01-27T01:08:47.418Z,0.00
2019-01-27T01:09:47.412Z,0.00
2019-01-27T01:10:47.403Z,0.00
2019-01-27T01:11:47.400Z,0.00
2019-01-27T01:12:47.374Z,0.00
2019-01-27T01:13:47.363Z,0.00
2019-01-27T01:14:47.354Z,0.00
2019-01-27T01:15:47.348Z,0.00
2019-01-27T01:16:47.360Z,0.00
2019-01-27T01:17:47.323Z,0.00
2019-01-27T01:18:47.313Z,0.00
2019-01-27T01:19:47.305Z,0.00
2019-01-27T01:20:47.291Z,0.00
2019-01-27T01:21:47.281Z,0.00
2019-01-27T01:22:47.286Z,0.00
2019-01-27T01:23:47.265Z,0.00
2019-01-27T01:24:47.257Z,0.00
2019-01-27T01:25:47.238Z,0.00
2019-01-27T01:26:47.235Z,0.00
2019-01-27T01:27:47.233Z,0.00
2019-01-27T01:28:47.209Z,0.00
2019-01-27T01:29:47.203Z,0.00
2019-01-27T01:30:47.186Z,0.00
2019-01-27T01:31:47.181Z,0.00
2019-01-27T01:32:47.206Z,0.00
2019-01-27T01:33:47.153Z,0.00
2019-01-27T01:34:47.146Z,0.00
2019-01-27T01:35:47.134Z,0.00
2019-01-27T01:36:47.129Z,0.00
2019-01-27T01:37:47.111Z,0.00
2019-01-27T01:38:47.138Z,0.00
2019-01-27T01:39:47.095Z,0.00
2019-01-27T01:40:48.003Z,0.00
2019-01-27T01:41:47.075Z,0.00
2019-01-27T01:42:47.069Z,0.00
2019-01-27T01:43:47.052Z,0.00
2019-01-27T01:44:47.055Z,0.00
2019-01-27T01:45:47.038Z,0.00
2019-01-27T01:46:47.018Z,0.00
2019-01-27T01:47:47.007Z,0.00
2019-01-27T01:48:46.997Z,0.00
2019-01-27T01:49:46.998Z,0.00
2019-01-27T01:50:46.977Z,0.00
2019-01-27T01:51:46.972Z,0.00
2019-01-27T01:52:46.955Z,0.00
2019-01-27T01:53:46.949Z,0.00
2019-01-27T01:54:46.942Z,0.00
2019-01-27T01:55:46.922Z,0.00
2019-01-27T01:56:46.928Z,0.00
2019-01-27T01:57:46.902Z,0.00
2019-01-27T01:58:46.900Z,0.00
2019-01-27T01:59:46.880Z,0.00
2019-01-27T02:00:46.877Z,0.00
2019-01-27T02:01:46.873Z,0.00
2019-01-27T02:02:46.857Z,0.00
2019-01-27T02:03:46.846Z,0.00
2019-01-27T02:04:46.835Z,0.00
2019-01-27T02:05:46.905Z,0.00
2019-01-27T02:06:46.806Z,0.00
2019-01-27T02:07:46.800Z,0.00
2019-01-27T02:08:46.794Z,0.00
2019-01-27T02:09:46.786Z,0.00
2019-01-27T02:10:46.769Z,0.00
2019-01-27T02:11:46.768Z,0.00
2019-01-27T02:12:46.748Z,0.00
2019-01-27T02:13:46.737Z,0.00
2019-01-27T02:14:46.726Z,0.00
2019-01-27T02:15:46.719Z,0.00
2019-01-27T02:16:46.709Z,0.00
2019-01-27T02:17:46.696Z,0.00
2019-01-27T02:18:46.680Z,0.00
2019-01-27T02:19:46.669Z,0.00
2019-01-27T02:20:46.664Z,0.00
2019-01-27T02:21:46.657Z,0.00
2019-01-27T02:22:46.646Z,0.00
2019-01-27T02:23:46.628Z,0.00
2019-01-27T02:24:46.621Z,0.00
2019-01-27T02:25:46.611Z,0.00
2019-01-27T02:26:46.608Z,0.00
2019-01-27T02:27:46.586Z,0.00
2019-01-27T02:28:46.576Z,0.00
2019-01-27T02:29:46.569Z,0.00
2019-01-27T02:30:46.553Z,0.00
2019-01-27T02:31:46.586Z,0.00
2019-01-27T02:32:46.536Z,0.00
2019-01-27T02:33:46.521Z,0.00
2019-01-27T02:34:46.514Z,0.00
2019-01-27T02:35:46.507Z,0.00
2019-01-27T02:36:46.499Z,0.00
2019-01-27T02:37:46.568Z,0.00
2019-01-27T02:38:46.468Z,0.00
2019-01-27T02:39:46.458Z,0.00
2019-01-27T02:40:46.473Z,0.00
2019-01-27T02:41:46.444Z,0.00
2019-01-27T02:42:46.434Z,0.00
2019-01-27T02:43:46.430Z,0.00
2019-01-27T02:44:46.408Z,0.00
2019-01-27T02:45:46.397Z,0.00
2019-01-27T02:46:46.386Z,0.00
2019-01-27T02:47:46.380Z,0.00
2019-01-27T02:48:46.371Z,0.00
2019-01-27T02:49:46.351Z,0.00
2019-01-27T02:50:46.346Z,0.00
2019-01-27T02:51:46.342Z,0.00
2019-01-27T02:52:46.332Z,0.00
2019-01-27T02:53:46.355Z,0.00
2019-01-27T02:54:46.304Z,0.00
2019-01-27T02:55:46.290Z,0.00
2019-01-27T02:56:46.278Z,0.00
2019-01-27T02:57:46.275Z,0.00
2019-01-27T02:58:46.262Z,0.00
2019-01-27T02:59:46.256Z,0.00
2019-01-27T03:00:46.237Z,0.00
2019-01-27T03:01:46.233Z,0.00
2019-01-27T03:02:46.216Z,0.00
2019-01-27T03:03:46.213Z,0.00
2019-01-27T03:04:46.218Z,0.00
2019-01-27T03:05:46.187Z,0.00
2019-01-27T03:06:46.183Z,0.00
2019-01-27T03:07:46.167Z,0.00
2019-01-27T03:08:46.157Z,0.00
2019-01-27T03:09:46.150Z,0.00
2019-01-27T03:10:46.135Z,0.00
2019-01-27T03:11:46.131Z,0.00
2019-01-27T03:12:46.113Z,0.00
2019-01-27T03:13:46.103Z,0.00
2019-01-27T03:14:46.089Z,0.00
2019-01-27T03:15:46.090Z,0.00
2019-01-27T03:16:46.095Z,0.00
2019-01-27T03:17:46.072Z,0.00
2019-01-27T03:18:46.061Z,0.00
2019-01-27T03:19:46.049Z,0.00
2019-01-27T03:20:46.031Z,0.00
2019-01-27T03:21:46.022Z,0.00
2019-01-27T03:22:46.004Z,0.00
2019-01-27T03:23:45.992Z,0.00
2019-01-27T03:24:45.983Z,0.00
2019-01-27T03:25:45.981Z,0.00
2019-01-27T03:26:46.005Z,0.00
2019-01-27T03:27:45.954Z,0.00
2019-01-27T03:28:45.944Z,0.00
2019-01-27T03:29:45.927Z,0.00
2019-01-27T03:30:45.923Z,0.00
2019-01-27T03:31:45.909Z,0.00
2019-01-27T03:32:45.912Z,0.00
2019-01-27T03:33:45.904Z,0.00
2019-01-27T03:34:45.884Z,0.00
2019-01-27T03:35:45.869Z,0.00
2019-01-27T03:36:45.860Z,0.00
2019-01-27T03:37:45.848Z,0.00
2019-01-27T03:38:45.841Z,0.00
2019-01-27T03:39:45.822Z,0.00
2019-01-27T03:40:45.811Z,0.00
2019-01-27T03:41:45.802Z,0.00
2019-01-27T03:42:45.805Z,0.00
2019-01-27T03:43:45.820Z,0.00
2019-01-27T03:44:45.774Z,0.00
2019-01-27T03:45:45.759Z,0.00
2019-01-27T03:46:45.753Z,0.00
2019-01-27T03:47:45.739Z,0.00
2019-01-27T03:48:45.740Z,0.00
2019-01-27T03:49:45.765Z,0.00
2019-01-27T03:50:45.712Z,0.00
2019-01-27T03:51:45.703Z,0.00
2019-01-27T03:52:45.685Z,0.00
2019-01-27T03:53:45.681Z,0.00
2019-01-27T03:54:45.668Z,0.00
2019-01-27T03:55:45.664Z,0.00
2019-01-27T03:56:45.657Z,0.00
2019-01-27T03:57:45.640Z,0.00
2019-01-27T03:58:45.621Z,0.00
2019-01-27T03:59:45.614Z,0.00
2019-01-27T04:00:45.612Z,0.00
2019-01-27T04:01:45.608Z,0.00
2019-01-27T04:02:45.587Z,0.00
2019-01-27T04:03:45.575Z,0.00
2019-01-27T04:04:45.564Z,0.00
2019-01-27T04:05:45.547Z,0.00
2019-01-27T04:06:45.555Z,0.00
2019-01-27T04:07:45.526Z,0.00
2019-01-27T04:08:45.519Z,0.00
2019-01-27T04:09:45.524Z,0.00
2019-01-27T04:10:45.513Z,0.00
2019-01-27T04:11:45.496Z,0.00
2019-01-27T04:12:45.508Z,0.00
2019-01-27T04:13:45.488Z,0.00
2019-01-27T04:14:45.457Z,0.00
2019-01-27T04:15:45.441Z,0.00
2019-01-27T04:16:45.450Z,0.00
2019-01-27T04:17:45.425Z,0.00
2019-01-27T04:18:45.417Z,0.00
2019-01-27T04:19:45.406Z,0.00
2019-01-27T04:20:45.395Z,0.00
2019-01-27T04:21:45.377Z,0.00
2019-01-27T04:22:45.370Z,0.00
2019-01-27T04:23:45.370Z,0.00
2019-01-27T04:24:45.356Z,0.00
2019-01-27T04:25:45.341Z,0.00
2019-01-27T04:26:45.323Z,0.00
2019-01-27T04:27:45.318Z,0.00
2019-01-27T04:28:45.307Z,0.00
2019-01-27T04:29:45.349Z,0.00
2019-01-27T04:30:45.286Z,0.00
2019-01-27T04:31:45.278Z,0.00
2019-01-27T04:32:45.260Z,0.00
2019-01-27T04:33:45.266Z,0.00
2019-01-27T04:34:45.249Z,0.00
2019-01-27T04:35:45.237Z,0.00
2019-01-27T04:36:45.217Z,0.00
2019-01-27T04:37:45.211Z,0.00
2019-01-27T04:38:45.201Z,0.00
2019-01-27T04:39:45.185Z,0.00
2019-01-27T04:40:45.219Z,0.00
2019-01-27T04:41:45.163Z,0.00
2019-01-27T04:42:45.159Z,0.00
2019-01-27T04:43:45.144Z,0.00
2019-01-27T04:44:45.140Z,0.00
2019-01-27T04:45:45.123Z,0.00
2019-01-27T04:46:45.160Z,0.00
2019-01-27T04:47:45.102Z,0.00
2019-01-27T04:48:45.091Z,0.00
2019-01-27T04:49:45.079Z,0.00
2019-01-27T04:50:45.071Z,0.00
2019-01-27T04:51:45.063Z,0.00
2019-01-27T04:52:45.069Z,0.00
2019-01-27T04:53:45.037Z,0.00
2019-01-27T04:54:45.027Z,0.00
2019-01-27T04:55:45.017Z,0.00
2019-01-27T04:56:45.006Z,0.00
2019-01-27T04:57:45.033Z,0.00
2019-01-27T04:58:44.995Z,0.00
2019-01-27T04:59:44.982Z,0.00
2019-01-27T05:00:44.974Z,0.00
2019-01-27T05:01:44.952Z,0.00
2019-01-27T05:02:44.941Z,0.00
2019-01-27T05:03:44.944Z,0.00
2019-01-27T05:04:44.928Z,0.00
2019-01-27T05:05:44.911Z,0.00
2019-01-27T05:06:44.905Z,0.00
2019-01-27T05:07:44.888Z,0.00
2019-01-27T05:08:44.886Z,0.00
2019-01-27T05:09:44.927Z,0.00
2019-01-27T05:10:44.880Z,0.00
2019-01-27T05:11:44.853Z,0.00
2019-01-27T05:12:44.848Z,0.00
2019-01-27T05:13:44.845Z,0.00
2019-01-27T05:14:44.825Z,0.00
2019-01-27T05:15:44.804Z,0.00
2019-01-27T05:16:44.800Z,0.00
2019-01-27T05:17:44.793Z,0.00
2019-01-27T05:18:44.786Z,0.00
2019-01-27T05:19:44.766Z,0.00
2019-01-27T05:20:44.760Z,0.00
2019-01-27T05:21:44.741Z,0.00
2019-01-27T05:22:44.729Z,0.00
2019-01-27T05:23:44.747Z,0.00
2019-01-27T05:24:44.717Z,0.00
2019-01-27T05:25:44.705Z,0.00
2019-01-27T05:26:44.699Z,0.00
2019-01-27T05:27:44.677Z,0.00
2019-01-27T05:28:44.673Z,0.00
2019-01-27T05:29:44.670Z,0.00
2019-01-27T05:30:44.649Z,0.00
2019-01-27T05:31:44.640Z,0.00
2019-01-27T05:32:44.625Z,0.00
2019-01-27T05:33:44.620Z,0.00
2019-01-27T05:34:44.610Z,0.00
2019-01-27T05:35:44.600Z,0.00
2019-01-27T05:36:44.587Z,0.00
2019-01-27T05:37:44.576Z,0.00
2019-01-27T05:38:44.560Z,0.00
2019-01-27T05:39:44.589Z,0.00
2019-01-27T05:40:44.547Z,0.00
2019-01-27T05:41:44.534Z,0.00
2019-01-27T05:42:44.518Z,0.00
2019-01-27T05:43:44.514Z,0.00
2019-01-27T05:44:44.505Z,0.00
2019-01-27T05:45:44.529Z,0.00
2019-01-27T05:46:44.485Z,0.00
2019-01-27T05:47:44.468Z,0.00
2019-01-27T05:48:44.453Z,0.00
2019-01-27T05:49:44.458Z,0.00
2019-01-27T05:50:44.440Z,0.00
2019-01-27T05:51:44.461Z,0.00
2019-01-27T05:52:44.414Z,0.00
2019-01-27T05:53:44.404Z,0.00
2019-01-27T05:54:44.395Z,0.00
2019-01-27T05:55:44.385Z,0.00
2019-01-27T05:56:44.377Z,0.00
2019-01-27T05:57:44.384Z,0.00
2019-01-27T05:58:44.349Z,0.00
2019-01-27T05:59:44.343Z,0.00
2019-01-27T06:00:44.332Z,0.00
2019-01-27T06:01:44.315Z,0.00
2019-01-27T06:02:44.305Z,0.00
2019-01-27T06:03:44.325Z,0.00
2019-01-27T06:04:44.291Z,0.00
2019-01-27T06:05:44.273Z,0.00
2019-01-27T06:06:44.269Z,0.00
2019-01-27T06:07:44.257Z,0.00
2019-01-27T06:08:44.241Z,0.00
2019-01-27T06:09:44.244Z,0.00
2019-01-27T06:10:44.226Z,0.00
2019-01-27T06:11:44.243Z,0.00
2019-01-27T06:12:44.207Z,0.00
2019-01-27T06:13:44.192Z,0.00
2019-01-27T06:14:44.179Z,0.00
2019-01-27T06:15:44.172Z,0.00
2019-01-27T06:16:44.158Z,0.00
2019-01-27T06:17:44.202Z,0.00
2019-01-27T06:18:44.141Z,0.00
2019-01-27T06:19:44.131Z,0.00
2019-01-27T06:20:44.125Z,0.00
2019-01-27T06:21:44.104Z,0.00
2019-01-27T06:22:44.101Z,0.00
2019-01-27T06:23:44.127Z,0.00
2019-01-27T06:24:44.074Z,0.00
2019-01-27T06:25:44.084Z,0.00
2019-01-27T06:26:44.060Z,0.00
2019-01-27T06:27:44.050Z,0.00
2019-01-27T06:28:44.037Z,0.00
2019-01-27T06:29:44.063Z,0.00
2019-01-27T06:30:44.014Z,0.00
2019-01-27T06:31:44.000Z,4.00
2019-01-27T06:32:43.988Z,4.00
2019-01-27T06:33:43.978Z,4.00
2019-01-27T06:34:43.972Z,4.00
2019-01-27T06:35:43.999Z,4.00
2019-01-27T06:36:43.950Z,4.00
2019-01-27T06:37:43.940Z,4.00
2019-01-27T06:38:43.925Z,8.00
2019-01-27T06:39:43.922Z,8.00
2019-01-27T06:40:43.919Z,12.00
2019-01-27T06:41:43.893Z,12.00
2019-01-27T06:42:43.912Z,12.00
2019-01-27T06:43:43.878Z,12.00
2019-01-27T06:44:43.867Z,16.00
2019-01-27T06:45:43.860Z,20.00
2019-01-27T06:46:43.847Z,20.00
2019-01-27T06:47:43.838Z,24.00
2019-01-27T06:48:43.829Z,24.00
2019-01-27T06:49:43.812Z,28.00
2019-01-27T06:50:43.800Z,32.00
2019-01-27T06:51:43.806Z,36.00
2019-01-27T06:52:43.793Z,40.00
2019-01-27T06:53:43.777Z,44.00
2019-01-27T06:54:43.758Z,52.00
2019-01-27T06:55:43.761Z,56.00
2019-01-27T06:56:43.741Z,56.00
2019-01-27T06:57:43.728Z,64.00
2019-01-27T06:58:43.722Z,68.00
2019-01-27T06:59:43.718Z,76.00
2019-01-27T07:00:43.704Z,76.00
2019-01-27T07:01:43.689Z,80.00
2019-01-27T07:02:43.687Z,76.00
2019-01-27T07:03:43.669Z,76.00
2019-01-27T07:04:43.663Z,76.00
2019-01-27T07:05:43.648Z,72.00
2019-01-27T07:06:43.630Z,80.00
2019-01-27T07:07:43.668Z,84.00
2019-01-27T07:08:43.616Z,92.00
2019-01-27T07:09:43.605Z,100.00
2019-01-27T07:10:43.598Z,104.00
2019-01-27T07:11:43.579Z,104.00
2019-01-27T07:12:43.579Z,112.00
2019-01-27T07:13:43.580Z,116.00
2019-01-27T07:14:43.547Z,132.00
2019-01-27T07:15:43.542Z,156.00
2019-01-27T07:16:43.528Z,180.00
2019-01-27T07:17:43.523Z,196.00
2019-01-27T07:18:43.507Z,208.00
2019-01-27T07:19:43.512Z,224.00
2019-01-27T07:20:43.484Z,232.00
2019-01-27T07:21:43.479Z,232.00
2019-01-27T07:22:43.467Z,228.00
2019-01-27T07:23:43.453Z,224.00
2019-01-27T07:24:43.442Z,228.00
2019-01-27T07:25:43.448Z,236.00
2019-01-27T07:26:43.437Z,248.00
2019-01-27T07:27:43.419Z,256.00
2019-01-27T07:28:43.461Z,268.00
2019-01-27T07:29:43.388Z,280.00
2019-01-27T07:30:43.377Z,280.00
2019-01-27T07:31:43.372Z,272.00
2019-01-27T07:32:43.362Z,284.00
2019-01-27T07:33:43.360Z,304.00
2019-01-27T07:34:43.340Z,304.00
2019-01-27T07:35:43.339Z,316.00
2019-01-27T07:36:43.348Z,348.00
2019-01-27T07:37:43.309Z,404.00
2019-01-27T07:38:43.299Z,468.00
2019-01-27T07:39:43.282Z,540.00
2019-01-27T07:40:43.274Z,596.00
2019-01-27T07:41:43.267Z,604.00
2019-01-27T07:42:43.262Z,604.00
2019-01-27T07:43:43.257Z,608.00
2019-01-27T07:44:43.240Z,636.00
2019-01-27T07:45:43.224Z,684.00
2019-01-27T07:46:43.209Z,720.00
2019-01-27T07:47:43.206Z,748.00
2019-01-27T07:48:43.189Z,740.00
2019-01-27T07:49:43.182Z,704.00
2019-01-27T07:50:43.174Z,704.00
2019-01-27T07:51:43.167Z,800.00
2019-01-27T07:52:43.158Z,868.00
2019-01-27T07:53:43.136Z,900.00
2019-01-27T07:54:43.125Z,916.00
2019-01-27T07:55:43.125Z,932.00
2019-01-27T07:56:43.109Z,884.00
2019-01-27T07:57:43.133Z,800.00
2019-01-27T07:58:43.088Z,712.00
2019-01-27T07:59:43.085Z,668.00
2019-01-27T08:00:43.067Z,644.00
2019-01-27T08:01:43.052Z,580.00
2019-01-27T08:02:43.048Z,524.00
2019-01-27T08:03:43.042Z,520.00
2019-01-27T08:04:43.025Z,508.00
2019-01-27T08:05:43.012Z,452.00
2019-01-27T08:06:43.003Z,372.00
2019-01-27T08:07:42.988Z,304.00
2019-01-27T08:08:42.991Z,252.00
2019-01-27T08:09:42.978Z,224.00
2019-01-27T08:10:42.962Z,232.00
2019-01-27T08:11:42.951Z,252.00
2019-01-27T08:12:42.935Z,260.00
2019-01-27T08:13:42.926Z,272.00
2019-01-27T08:14:42.928Z,296.00
2019-01-27T08:15:42.905Z,348.00
2019-01-27T08:16:42.922Z,408.00
2019-01-27T08:17:42.884Z,480.00
2019-01-27T08:18:42.880Z,580.00
2019-01-27T08:19:42.873Z,668.00
2019-01-27T08:20:42.857Z,688.00
2019-01-27T08:21:42.848Z,708.00
2019-01-27T08:22:42.836Z,772.00
2019-01-27T08:23:42.827Z,884.00
2019-01-27T08:24:42.815Z,1004.00
2019-01-27T08:25:42.836Z,1080.00
2019-01-27T08:26:42.812Z,1112.00
2019-01-27T08:27:42.778Z,1076.00
2019-01-27T08:28:42.769Z,1004.00
2019-01-27T08:29:42.760Z,948.00
2019-01-27T08:30:42.749Z,924.00
2019-01-27T08:31:42.749Z,912.00
2019-01-27T08:32:42.727Z,924.00
2019-01-27T08:33:42.721Z,1100.00
2019-01-27T08:34:42.705Z,1240.00
2019-01-27T08:35:42.703Z,1272.00
2019-01-27T08:36:42.702Z,1344.00
2019-01-27T08:37:42.693Z,1492.00
2019-01-27T08:38:42.669Z,1716.00
2019-01-27T08:39:42.660Z,1728.00
2019-01-27T08:40:42.652Z,1624.00
2019-01-27T08:41:42.633Z,1632.00
2019-01-27T08:42:43.444Z,1768.00
2019-01-27T08:43:42.624Z,1840.00
2019-01-27T08:44:42.601Z,1752.00
2019-01-27T08:45:42.591Z,1596.00
2019-01-27T08:46:42.580Z,1336.00
2019-01-27T08:47:42.576Z,1096.00
2019-01-27T08:48:42.566Z,916.00
2019-01-27T08:49:42.553Z,792.00
2019-01-27T08:50:42.538Z,728.00
2019-01-27T08:51:42.531Z,668.00
2019-01-27T08:52:42.524Z,600.00
2019-01-27T08:53:42.519Z,576.00
2019-01-27T08:54:42.520Z,584.00
2019-01-27T08:55:42.496Z,548.00
2019-01-27T08:56:42.476Z,496.00
2019-01-27T08:57:42.463Z,432.00
2019-01-27T08:58:42.467Z,368.00
2019-01-27T08:59:42.477Z,328.00
2019-01-27T09:00:42.437Z,292.00
2019-01-27T09:01:42.427Z,292.00
2019-01-27T09:02:42.415Z,300.00
2019-01-27T09:03:42.409Z,304.00
2019-01-27T09:04:42.396Z,324.00
2019-01-27T09:05:42.407Z,368.00
2019-01-27T09:06:42.374Z,424.00
2019-01-27T09:07:42.369Z,488.00
2019-01-27T09:08:42.349Z,668.00
2019-01-27T09:09:42.336Z,836.00
2019-01-27T09:10:42.335Z,956.00
2019-01-27T09:11:42.317Z,1196.00
2019-01-27T09:12:42.314Z,1396.00
2019-01-27T09:13:42.316Z,1736.00
2019-01-27T09:14:42.291Z,2072.00
2019-01-27T09:15:42.288Z,2352.00
2019-01-27T09:16:42.279Z,2704.00
2019-01-27T09:17:42.259Z,2840.00
2019-01-27T09:18:42.251Z,2804.00
2019-01-27T09:19:42.238Z,2964.00
2019-01-27T09:20:42.230Z,2960.00
2019-01-27T09:21:42.249Z,3020.00
2019-01-27T09:22:42.206Z,3096.00
2019-01-27T09:23:42.192Z,3176.00
2019-01-27T09:24:42.188Z,3284.00
2019-01-27T09:25:42.174Z,3368.00
2019-01-27T09:26:42.167Z,3420.00
2019-01-27T09:27:42.157Z,3608.00
2019-01-27T09:28:42.143Z,3872.00
2019-01-27T09:29:42.133Z,4116.00
2019-01-27T09:30:42.124Z,4648.00
2019-01-27T09:31:42.148Z,5256.00
2019-01-27T09:32:42.096Z,5884.00
2019-01-27T09:33:42.084Z,6376.00
2019-01-27T09:34:42.074Z,6804.00
2019-01-27T09:35:42.074Z,7524.00
2019-01-27T09:36:42.059Z,7520.00
2019-01-27T09:37:42.064Z,6712.00
2019-01-27T09:38:42.036Z,6476.00
2019-01-27T09:39:42.029Z,6624.00
2019-01-27T09:40:42.011Z,7148.00
2019-01-27T09:41:42.005Z,7084.00
2019-01-27T09:42:42.025Z,6872.00
2019-01-27T09:43:41.985Z,5420.00
2019-01-27T09:44:41.978Z,4616.00
2019-01-27T09:45:57.883Z,4492.00
2019-01-27T09:46:49.742Z,4600.00
2019-01-27T09:47:41.941Z,4532.00
2019-01-27T09:48:41.965Z,4840.00
2019-01-27T09:49:41.917Z,4596.00
2019-01-27T09:50:41.907Z,4384.00
2019-01-27T09:51:41.900Z,3872.00
2019-01-27T09:52:41.887Z,3912.00
2019-01-27T09:53:41.880Z,4448.00
2019-01-27T09:54:41.875Z,4904.00
2019-01-27T09:55:41.851Z,4876.00
2019-01-27T09:56:41.849Z,4340.00
2019-01-27T09:57:41.835Z,4272.00
2019-01-27T09:58:41.874Z,3776.00
2019-01-27T09:59:41.807Z,3820.00
2019-01-27T10:00:41.802Z,3900.00
2019-01-27T10:01:41.787Z,3612.00
2019-01-27T10:02:41.780Z,2968.00
2019-01-27T10:03:41.771Z,2632.00
2019-01-27T10:04:41.803Z,2752.00
2019-01-27T10:05:41.785Z,2348.00
2019-01-27T10:06:41.738Z,2148.00
2019-01-27T10:07:41.727Z,2220.00
2019-01-27T10:08:41.713Z,2172.00
2019-01-27T10:09:41.701Z,2276.00
2019-01-27T10:10:41.737Z,2328.00
2019-01-27T10:11:41.686Z,2132.00
2019-01-27T10:12:41.669Z,1976.00
2019-01-27T10:13:41.660Z,1836.00
2019-01-27T10:14:41.652Z,1684.00
2019-01-27T10:15:41.643Z,2092.00
2019-01-27T10:16:41.634Z,2244.00
2019-01-27T10:17:41.615Z,2404.00
2019-01-27T10:18:41.605Z,2968.00
2019-01-27T10:19:41.598Z,2908.00
2019-01-27T10:20:41.616Z,2748.00
2019-01-27T10:21:41.585Z,3140.00
2019-01-27T10:22:41.568Z,3740.00
2019-01-27T10:23:41.566Z,5116.00
2019-01-27T10:24:41.546Z,5928.00
2019-01-27T10:25:41.532Z,5188.00
2019-01-27T10:26:41.533Z,3996.00
2019-01-27T10:27:41.513Z,3340.00
2019-01-27T10:28:41.502Z,3020.00
2019-01-27T10:29:41.493Z,3120.00
2019-01-27T10:30:41.480Z,3480.00
2019-01-27T10:31:41.479Z,3880.00
2019-01-27T10:32:41.468Z,3812.00
2019-01-27T10:33:41.446Z,3092.00
2019-01-27T10:34:41.440Z,2696.00
2019-01-27T10:35:42.908Z,2496.00
2019-01-27T10:36:41.418Z,2364.00
2019-01-27T10:37:41.420Z,2416.00
2019-01-27T10:38:41.391Z,2172.00
2019-01-27T10:39:41.386Z,2280.00
2019-01-27T10:40:41.369Z,2072.00
2019-01-27T10:41:41.365Z,2332.00
2019-01-27T10:42:41.361Z,2100.00
2019-01-27T10:43:41.337Z,1880.00
2019-01-27T10:44:41.338Z,1868.00
2019-01-27T10:45:41.319Z,1960.00
2019-01-27T10:46:41.306Z,2084.00
2019-01-27T10:47:41.415Z,2292.00
2019-01-27T10:48:41.287Z,2824.00
2019-01-27T10:49:41.276Z,2780.00
2019-01-27T10:50:41.261Z,2620.00
2019-01-27T10:51:41.253Z,2256.00
2019-01-27T10:52:41.238Z,1912.00
2019-01-27T10:53:41.240Z,1744.00
2019-01-27T10:54:41.220Z,1624.00
2019-01-27T10:55:41.211Z,1564.00
2019-01-27T10:56:41.198Z,1452.00
2019-01-27T10:57:42.475Z,1264.00
2019-01-27T10:58:41.188Z,1264.00
2019-01-27T10:59:41.166Z,1376.00
2019-01-27T11:00:41.159Z,1268.00
2019-01-27T11:01:41.355Z,1224.00
2019-01-27T11:02:41.139Z,1132.00
2019-01-27T11:03:41.131Z,1176.00
2019-01-27T11:04:41.135Z,1172.00
2019-01-27T11:05:42.094Z,1172.00
2019-01-27T11:06:41.092Z,1232.00
2019-01-27T11:07:41.096Z,1188.00
2019-01-27T11:08:41.077Z,992.00
2019-01-27T11:09:41.061Z,920.00
2019-01-27T11:10:41.075Z,980.00
2019-01-27T11:11:41.046Z,1120.00
2019-01-27T11:12:41.033Z,1396.00
2019-01-27T11:13:41.017Z,1540.00
2019-01-27T11:14:41.008Z,1468.00
2019-01-27T11:15:41.029Z,1668.00
2019-01-27T11:16:40.991Z,1952.00
2019-01-27T11:17:40.983Z,1904.00
2019-01-27T11:18:40.970Z,2260.00
2019-01-27T11:19:40.967Z,2736.00
2019-01-27T11:20:40.950Z,2656.00
2019-01-27T11:21:40.948Z,2968.00
2019-01-27T11:22:40.924Z,2392.00
2019-01-27T11:23:40.913Z,2268.00
2019-01-27T11:24:40.906Z,2016.00
2019-01-27T11:25:40.897Z,2008.00
2019-01-27T11:26:40.913Z,2076.00
2019-01-27T11:27:40.872Z,1992.00
2019-01-27T11:28:40.867Z,1820.00
2019-01-27T11:29:40.861Z,2000.00
2019-01-27T11:30:40.864Z,2256.00
2019-01-27T11:31:40.849Z,2372.00
2019-01-27T11:32:40.835Z,2740.00
2019-01-27T11:33:40.813Z,3224.00
2019-01-27T11:34:40.806Z,3064.00
2019-01-27T11:35:40.786Z,2968.00
2019-01-27T11:36:40.778Z,2784.00
2019-01-27T11:37:40.766Z,2776.00
2019-01-27T11:38:40.760Z,2832.00
2019-01-27T11:39:40.764Z,3332.00
2019-01-27T11:40:40.743Z,4212.00
2019-01-27T11:41:40.729Z,4752.00
2019-01-27T11:42:40.722Z,5080.00
2019-01-27T11:43:40.703Z,5896.00
2019-01-27T11:44:40.699Z,6684.00
2019-01-27T11:45:40.692Z,6080.00
2019-01-27T11:46:40.682Z,4892.00
2019-01-27T11:47:40.685Z,4040.00
2019-01-27T11:48:40.649Z,3980.00
2019-01-27T11:49:40.645Z,2720.00
2019-01-27T11:50:40.641Z,1708.00
2019-01-27T11:51:40.622Z,1496.00
2019-01-27T11:52:40.613Z,1520.00
2019-01-27T11:53:40.601Z,1536.00
2019-01-27T11:54:40.590Z,1928.00
2019-01-27T11:55:40.582Z,2012.00
2019-01-27T11:56:40.572Z,1720.00
2019-01-27T11:57:40.559Z,1460.00
2019-01-27T11:58:40.555Z,1328.00
2019-01-27T11:59:40.531Z,1288.00
2019-01-27T12:00:40.521Z,1248.00
2019-01-27T12:01:40.527Z,1248.00
2019-01-27T12:02:46.584Z,1268.00
2019-01-27T12:03:41.495Z,1288.00
2019-01-27T12:04:40.480Z,1240.00
2019-01-27T12:05:40.504Z,1220.00
2019-01-27T12:06:40.467Z,1292.00
2019-01-27T12:07:40.453Z,1468.00
2019-01-27T12:08:40.460Z,1612.00
2019-01-27T12:09:40.436Z,1628.00
2019-01-27T12:10:40.417Z,1512.00
2019-01-27T12:11:40.411Z,1396.00
2019-01-27T12:12:40.396Z,1380.00
2019-01-27T12:13:40.395Z,1528.00
2019-01-27T12:14:40.374Z,1764.00
2019-01-27T12:15:40.368Z,1904.00
2019-01-27T12:16:40.355Z,2024.00
2019-01-27T12:17:40.351Z,2264.00
2019-01-27T12:18:40.382Z,2468.00
2019-01-27T12:19:40.454Z,2436.00
2019-01-27T12:20:40.320Z,2272.00
2019-01-27T12:21:40.306Z,2104.00
2019-01-27T12:22:40.298Z,1880.00
2019-01-27T12:23:40.279Z,1680.00
2019-01-27T12:24:40.277Z,1524.00
2019-01-27T12:25:40.264Z,1376.00
2019-01-27T12:26:40.252Z,1320.00
2019-01-27T12:27:40.243Z,1280.00
2019-01-27T12:28:40.227Z,1272.00
2019-01-27T12:29:40.224Z,1284.00
2019-01-27T12:30:40.211Z,1356.00
2019-01-27T12:31:40.201Z,1560.00
2019-01-27T12:32:40.184Z,1872.00
2019-01-27T12:33:40.184Z,2196.00
2019-01-27T12:34:40.191Z,2608.00
2019-01-27T12:35:40.158Z,3064.00
2019-01-27T12:36:40.146Z,3320.00
2019-01-27T12:37:40.136Z,3244.00
2019-01-27T12:38:40.131Z,3448.00
2019-01-27T12:39:40.118Z,3876.00
2019-01-27T12:40:40.122Z,3828.00
2019-01-27T12:41:40.089Z,3180.00
2019-01-27T12:42:40.086Z,2912.00
2019-01-27T12:43:40.068Z,2912.00
2019-01-27T12:44:40.082Z,2824.00
2019-01-27T12:45:40.050Z,2960.00
2019-01-27T12:46:40.035Z,3512.00
2019-01-27T12:47:40.027Z,3896.00